createdAt,value
2023-04-16T00:01:57.623Z,1.40
2023-04-16T00:04:28.800Z,1.30
2023-04-16T00:06:59.595Z,1.60
2023-04-16T00:09:30.438Z,1.40
2023-04-16T00:12:01.852Z,1.40
2023-04-16T00:14:32.674Z,1.60
2023-04-16T00:17:03.797Z,1.30
2023-04-16T00:19:34.630Z,1.40
2023-04-16T00:22:05.681Z,1.80
2023-04-16T00:24:36.951Z,1.30
2023-04-16T00:27:09.017Z,1.50
2023-04-16T00:29:39.812Z,1.60
2023-04-16T00:32:10.761Z,1.30
2023-04-16T00:34:41.427Z,1.20
2023-04-16T00:37:12.325Z,1.50
2023-04-16T00:39:43.204Z,1.70
2023-04-16T00:42:14.033Z,1.60
2023-04-16T00:44:44.906Z,1.70
2023-04-16T00:47:16.248Z,1.90
2023-04-16T00:49:47.779Z,1.60
2023-04-16T00:52:18.714Z,1.50
2023-04-16T00:54:49.963Z,1.60
2023-04-16T00:57:21.200Z,1.80
2023-04-16T00:59:52.703Z,1.50
2023-04-16T01:02:23.624Z,1.20
2023-04-16T01:04:54.663Z,1.70
2023-04-16T01:07:25.504Z,1.50
2023-04-16T01:09:56.552Z,1.70
2023-04-16T01:12:27.545Z,1.90
2023-04-16T01:14:59.093Z,1.60
2023-04-16T01:17:29.832Z,1.70
2023-04-16T01:20:03.056Z,1.40
2023-04-16T01:22:33.704Z,1.40
2023-04-16T01:25:04.738Z,1.40
2023-04-16T01:27:35.603Z,1.50
2023-04-16T01:30:08.752Z,1.20
2023-04-16T01:32:39.887Z,1.60
2023-04-16T01:35:11.048Z,1.70
2023-04-16T01:37:44.185Z,1.40
2023-04-16T01:40:15.612Z,1.50
2023-04-16T01:42:46.693Z,1.30
2023-04-16T01:45:17.668Z,1.50
2023-04-16T01:47:48.367Z,1.40
2023-04-16T01:50:20.177Z,1.70
2023-04-16T01:52:53.321Z,1.60
2023-04-16T01:55:24.397Z,1.70
2023-04-16T01:57:55.199Z,1.30
2023-04-16T02:00:26.178Z,1.70
2023-04-16T02:02:57.172Z,1.60
2023-04-16T02:05:28.056Z,1.60
2023-04-16T02:07:58.973Z,1.60
2023-04-16T02:10:29.646Z,1.60
2023-04-16T02:13:00.471Z,1.50
2023-04-16T02:15:31.205Z,1.60
2023-04-16T02:18:01.888Z,2.00
2023-04-16T02:20:32.712Z,1.70
2023-04-16T02:23:03.519Z,1.60
2023-04-16T02:25:34.126Z,1.40
2023-04-16T02:28:05.070Z,1.40
2023-04-16T02:30:36.341Z,1.60
2023-04-16T02:33:07.951Z,1.50
2023-04-16T02:35:39.547Z,1.30
2023-04-16T02:38:11.111Z,1.70
2023-04-16T02:40:42.579Z,1.60
2023-04-16T02:43:13.555Z,2.00
2023-04-16T02:45:45.044Z,1.50
2023-04-16T02:48:15.822Z,1.80
2023-04-16T02:50:46.760Z,1.70
2023-04-16T02:53:17.785Z,1.80
2023-04-16T02:55:53.838Z,1.60
2023-04-16T02:58:26.444Z,1.40
2023-04-16T03:00:57.474Z,1.90
2023-04-16T03:03:28.342Z,1.50
2023-04-16T03:05:59.152Z,1.30
2023-04-16T03:08:30.681Z,1.90
2023-04-16T03:11:01.756Z,1.50
2023-04-16T03:13:32.491Z,1.50
2023-04-16T03:16:03.610Z,1.80
2023-04-16T03:18:34.583Z,1.60
2023-04-16T03:21:06.347Z,1.90
2023-04-16T03:23:37.538Z,1.60
2023-04-16T03:26:08.529Z,1.60
2023-04-16T03:28:39.424Z,1.80
2023-04-16T03:31:10.263Z,1.50
2023-04-16T03:33:41.385Z,1.70
2023-04-16T03:36:12.844Z,1.80
2023-04-16T03:38:43.564Z,1.70
2023-04-16T03:41:14.297Z,1.60
2023-04-16T03:43:44.968Z,1.50
2023-04-16T03:46:15.900Z,1.70
2023-04-16T03:48:46.826Z,1.60
2023-04-16T03:51:17.484Z,1.50
2023-04-16T03:53:48.141Z,1.70
2023-04-16T03:56:19.458Z,2.10
2023-04-16T03:58:50.075Z,2.10
2023-04-16T04:01:20.809Z,1.70
2023-04-16T04:03:51.607Z,2.00
2023-04-16T04:06:22.494Z,2.60
2023-04-16T04:08:53.556Z,1.80
2023-04-16T04:11:24.342Z,1.90
2023-04-16T04:13:55.128Z,2.10
2023-04-16T04:16:26.034Z,2.10
2023-04-16T04:18:56.992Z,1.80
2023-04-16T04:21:28.501Z,2.00
2023-04-16T04:23:59.124Z,1.70
2023-04-16T04:26:30.036Z,2.50
2023-04-16T04:29:00.871Z,2.10
2023-04-16T04:31:31.759Z,1.90
2023-04-16T04:34:02.670Z,2.10
2023-04-16T04:36:33.918Z,2.10
2023-04-16T04:39:04.736Z,2.10
2023-04-16T04:41:36.320Z,2.20
2023-04-16T04:44:07.782Z,2.50
2023-04-16T04:46:38.442Z,2.20
2023-04-16T04:49:09.523Z,1.80
2023-04-16T04:51:40.746Z,1.80
2023-04-16T04:54:11.594Z,1.90
2023-04-16T04:56:45.335Z,2.10
2023-04-16T04:59:16.075Z,1.70
2023-04-16T05:01:46.760Z,2.00
2023-04-16T05:04:18.138Z,2.10
2023-04-16T05:06:49.019Z,2.10
2023-04-16T05:09:19.760Z,2.00
2023-04-16T05:11:50.499Z,2.10
2023-04-16T05:14:21.544Z,2.40
2023-04-16T05:16:52.301Z,1.90
2023-04-16T05:19:23.112Z,2.50
2023-04-16T05:21:53.868Z,2.20
2023-04-16T05:24:25.223Z,2.60
2023-04-16T05:26:56.970Z,3.10
2023-04-16T05:29:27.702Z,2.60
2023-04-16T05:31:58.652Z,2.10
2023-04-16T05:34:29.606Z,2.00
2023-04-16T05:37:01.054Z,2.80
2023-04-16T05:39:31.672Z,2.50
2023-04-16T05:42:02.383Z,2.50
2023-04-16T05:44:33.343Z,2.30
2023-04-16T05:47:04.054Z,2.80
2023-04-16T05:49:34.842Z,2.90
2023-04-16T05:52:05.881Z,2.70
2023-04-16T05:54:36.683Z,2.60
2023-04-16T05:57:07.464Z,2.90
2023-04-16T05:59:38.212Z,3.00
2023-04-16T06:02:09.741Z,3.00
2023-04-16T06:04:40.507Z,2.70
2023-04-16T06:07:11.340Z,2.80
2023-04-16T06:09:42.098Z,2.70
2023-04-16T06:12:12.911Z,3.60
2023-04-16T06:14:43.760Z,2.70
2023-04-16T06:17:14.639Z,2.40
2023-04-16T06:19:46.891Z,3.00
2023-04-16T06:22:17.812Z,2.80
2023-04-16T06:24:48.560Z,3.30
2023-04-16T06:27:19.274Z,3.10
2023-04-16T06:29:50.712Z,3.00
2023-04-16T06:32:21.832Z,3.20
2023-04-16T06:34:52.809Z,3.10
2023-04-16T06:37:23.876Z,2.90
2023-04-16T06:39:54.649Z,2.70
2023-04-16T06:42:26.160Z,3.10
2023-04-16T06:44:57.058Z,3.30
2023-04-16T06:47:28.300Z,3.60
2023-04-16T06:49:59.079Z,3.40
2023-04-16T06:52:30.081Z,2.80
2023-04-16T06:55:01.110Z,2.80
2023-04-16T06:57:32.034Z,3.00
2023-04-16T07:00:03.227Z,3.20
2023-04-16T07:02:34.179Z,3.30
2023-04-16T07:05:05.399Z,3.20
2023-04-16T07:07:36.495Z,3.40
2023-04-16T07:10:08.391Z,3.10
2023-04-16T07:12:39.421Z,3.40
2023-04-16T07:15:12.556Z,3.50
2023-04-16T07:17:43.398Z,3.20
2023-04-16T07:20:15.374Z,3.30
2023-04-16T07:22:46.394Z,3.40
2023-04-16T07:25:17.274Z,3.60
2023-04-16T07:27:48.201Z,3.50
2023-04-16T07:30:19.108Z,3.80
2023-04-16T07:32:49.981Z,3.50
2023-04-16T07:35:21.159Z,3.30
2023-04-16T07:37:52.129Z,3.80
2023-04-16T07:40:23.041Z,3.70
2023-04-16T07:42:54.148Z,3.50
2023-04-16T07:45:25.061Z,3.60
2023-04-16T07:47:56.776Z,3.40
2023-04-16T07:50:28.351Z,3.70
2023-04-16T07:52:59.616Z,3.30
2023-04-16T07:55:30.856Z,3.90
2023-04-16T07:58:02.857Z,3.40
2023-04-16T08:00:34.306Z,4.40
2023-04-16T08:03:05.886Z,4.20
2023-04-16T08:05:37.639Z,3.10
2023-04-16T08:08:08.663Z,3.80
2023-04-16T08:10:39.797Z,3.60
2023-04-16T08:13:10.795Z,3.30
2023-04-16T08:15:41.959Z,4.10
2023-04-16T08:18:15.839Z,3.70
2023-04-16T08:23:15.921Z,3.60
2023-04-16T08:25:46.875Z,3.50
2023-04-16T08:28:17.851Z,4.00
2023-04-16T08:30:48.694Z,3.30
2023-04-16T08:33:19.639Z,3.80
2023-04-16T08:35:50.477Z,3.60
2023-04-16T08:38:21.435Z,4.00
2023-04-16T08:40:52.359Z,4.10
2023-04-16T08:43:27.275Z,3.70
2023-04-16T08:45:59.300Z,3.60
2023-04-16T08:48:34.622Z,3.90
2023-04-16T08:51:07.392Z,3.50
2023-04-16T08:53:55.080Z,3.90
2023-04-16T08:56:27.372Z,3.70
2023-04-16T08:58:58.577Z,4.10
2023-04-16T09:01:32.333Z,4.10
2023-04-16T09:04:04.193Z,4.50
2023-04-16T09:06:36.029Z,4.30
2023-04-16T09:09:08.359Z,4.90
2023-04-16T09:11:40.719Z,4.70
2023-04-16T09:14:13.041Z,4.40
2023-04-16T09:16:45.660Z,4.40
2023-04-16T09:19:17.359Z,4.20
2023-04-16T09:21:49.426Z,4.60
2023-04-16T09:24:20.808Z,4.10
2023-04-16T09:26:52.756Z,4.10
2023-04-16T09:29:37.701Z,4.20
2023-04-16T09:32:10.706Z,4.20
2023-04-16T09:34:59.770Z,4.20
2023-04-16T09:37:31.740Z,3.90
2023-04-16T09:40:04.141Z,4.20
2023-04-16T09:42:37.136Z,3.80
2023-04-16T09:45:09.565Z,4.00
2023-04-16T09:47:45.155Z,4.20
2023-04-16T09:50:19.965Z,3.30
2023-04-16T09:52:53.019Z,4.10
2023-04-16T09:55:29.910Z,4.30
2023-04-16T09:58:04.088Z,4.40
2023-04-16T10:00:34.865Z,3.80
2023-04-16T10:03:09.258Z,3.60
2023-04-16T10:05:40.164Z,3.80
2023-04-16T10:08:18.872Z,3.70
2023-04-16T10:10:49.935Z,3.50
2023-04-16T10:13:20.965Z,3.40
2023-04-16T10:15:52.796Z,3.60
2023-04-16T10:18:23.730Z,4.30
2023-04-16T10:20:54.693Z,3.50
2023-04-16T10:23:27.047Z,3.90
2023-04-16T10:25:58.447Z,4.00
2023-04-16T10:28:29.945Z,3.60
2023-04-16T10:31:02.578Z,3.20
2023-04-16T10:33:36.786Z,3.50
2023-04-16T10:36:16.672Z,3.80
2023-04-16T10:41:21.191Z,3.30
2023-04-16T10:43:52.753Z,3.30
2023-04-16T10:46:28.949Z,3.20
2023-04-16T10:49:03.954Z,3.30
2023-04-16T10:51:37.575Z,2.90
2023-04-16T10:54:27.427Z,3.00
2023-04-16T10:57:04.664Z,3.10
2023-04-16T10:59:36.862Z,2.90
2023-04-16T11:02:14.337Z,3.20
2023-04-16T11:04:47.715Z,3.30
2023-04-16T11:07:23.877Z,3.20
2023-04-16T11:09:59.876Z,3.10
2023-04-16T11:12:38.603Z,3.10
2023-04-16T11:15:12.545Z,3.10
2023-04-16T11:17:44.773Z,3.20
2023-04-16T11:20:21.423Z,2.80
2023-04-16T11:22:53.323Z,3.60
2023-04-16T11:25:25.404Z,2.80
2023-04-16T11:27:57.111Z,2.70
2023-04-16T11:30:34.087Z,3.10
2023-04-16T11:33:08.926Z,2.60
2023-04-16T11:35:41.739Z,2.80
2023-04-16T11:38:12.720Z,3.00
2023-04-16T11:40:45.777Z,2.80
2023-04-16T11:43:18.127Z,2.90
2023-04-16T11:46:00.459Z,2.80
2023-04-16T11:48:49.262Z,2.70
2023-04-16T11:51:21.942Z,3.20
2023-04-16T11:53:54.090Z,2.60
2023-04-16T11:56:34.673Z,2.80
2023-04-16T11:59:14.215Z,2.40
2023-04-16T12:01:49.632Z,3.10
2023-04-16T12:04:23.026Z,3.20
2023-04-16T12:07:11.363Z,2.70
2023-04-16T12:09:43.651Z,2.80
2023-04-16T12:12:32.142Z,2.60
2023-04-16T12:15:05.764Z,2.70
2023-04-16T12:17:38.335Z,2.50
2023-04-16T12:20:13.932Z,2.60
2023-04-16T12:22:48.152Z,3.10
2023-04-16T12:25:19.943Z,2.70
2023-04-16T12:27:53.745Z,2.60
2023-04-16T12:30:30.119Z,2.70
2023-04-16T12:33:18.247Z,2.50
2023-04-16T12:35:49.890Z,2.40
2023-04-16T12:38:22.803Z,2.50
2023-04-16T12:40:57.247Z,2.60
2023-04-16T12:43:29.142Z,2.20
2023-04-16T12:46:01.188Z,2.70
2023-04-16T12:48:33.993Z,2.70
2023-04-16T12:51:05.402Z,2.80
2023-04-16T12:53:36.131Z,2.30
2023-04-16T12:56:07.345Z,2.80
2023-04-16T12:58:38.343Z,2.20
2023-04-16T13:01:09.284Z,2.40
2023-04-16T13:03:41.408Z,2.50
2023-04-16T13:06:12.545Z,2.20
2023-04-16T13:08:44.212Z,2.50
2023-04-16T13:11:15.799Z,2.60
2023-04-16T13:13:46.501Z,2.40
2023-04-16T13:16:17.546Z,2.60
2023-04-16T13:18:48.460Z,2.20
2023-04-16T13:21:19.373Z,2.90
2023-04-16T13:23:50.332Z,2.20
2023-04-16T13:26:21.111Z,2.40
2023-04-16T13:28:51.974Z,2.60
2023-04-16T13:31:22.974Z,2.20
2023-04-16T13:33:53.804Z,2.00
2023-04-16T13:36:26.327Z,2.40
2023-04-16T13:38:58.576Z,2.30
2023-04-16T13:41:29.571Z,2.40
2023-04-16T13:44:00.304Z,2.80
2023-04-16T13:46:31.202Z,2.50
2023-04-16T13:49:02.596Z,2.10
2023-04-16T13:51:34.102Z,2.10
2023-04-16T13:54:05.308Z,2.10
2023-04-16T13:56:36.024Z,2.60
2023-04-16T13:59:07.111Z,2.10
2023-04-16T14:01:37.888Z,2.70
2023-04-16T14:04:09.619Z,2.30
2023-04-16T14:06:40.372Z,2.10
2023-04-16T14:09:11.892Z,2.60
2023-04-16T14:11:43.269Z,2.00
2023-04-16T14:14:14.386Z,2.60
2023-04-16T14:16:45.650Z,2.50
2023-04-16T14:19:16.857Z,2.10
2023-04-16T14:21:47.594Z,2.40
2023-04-16T14:24:18.347Z,2.20
2023-04-16T14:26:49.127Z,1.90
2023-04-16T14:29:19.894Z,2.10
2023-04-16T14:31:51.043Z,2.20
2023-04-16T14:34:22.153Z,2.20
2023-04-16T14:36:53.170Z,2.00
2023-04-16T14:39:24.223Z,2.50
2023-04-16T14:41:55.292Z,2.10
2023-04-16T14:44:26.210Z,2.10
2023-04-16T14:46:57.288Z,1.90
2023-04-16T14:49:28.315Z,2.30
2023-04-16T14:51:59.336Z,2.60
2023-04-16T14:54:30.101Z,2.50
2023-04-16T14:57:02.002Z,2.70
2023-04-16T14:59:32.936Z,2.10
2023-04-16T15:02:03.843Z,2.70
2023-04-16T15:04:34.736Z,2.30
2023-04-16T15:07:05.771Z,2.00
2023-04-16T15:09:36.776Z,2.10
2023-04-16T15:12:08.130Z,2.40
2023-04-16T15:14:39.059Z,2.20
2023-04-16T15:17:10.220Z,2.60
2023-04-16T15:19:41.526Z,2.50
2023-04-16T15:22:12.754Z,2.50
2023-04-16T15:24:43.687Z,2.50
2023-04-16T15:27:15.082Z,2.30
2023-04-16T15:29:46.854Z,2.20
2023-04-16T15:32:17.688Z,2.50
2023-04-16T15:34:48.669Z,2.40
2023-04-16T15:37:19.978Z,2.50
2023-04-16T15:39:51.163Z,2.30
2023-04-16T15:42:22.229Z,2.00
2023-04-16T15:44:54.264Z,2.10
2023-04-16T15:47:25.604Z,2.30
2023-04-16T15:49:56.564Z,2.30
2023-04-16T15:52:27.526Z,2.70
2023-04-16T15:54:58.968Z,2.60
2023-04-16T15:57:29.851Z,2.40
2023-04-16T16:00:06.389Z,2.20
2023-04-16T16:02:38.269Z,2.40
2023-04-16T16:05:12.869Z,2.10
2023-04-16T16:07:44.291Z,2.10
2023-04-16T16:10:15.792Z,2.50
2023-04-16T16:12:46.634Z,2.20
2023-04-16T16:15:17.722Z,2.50
2023-04-16T16:17:48.777Z,1.80
2023-04-16T16:20:19.809Z,1.90
2023-04-16T16:22:54.068Z,2.00
2023-04-16T16:25:25.334Z,2.20
2023-04-16T16:27:56.062Z,2.50
2023-04-16T16:30:27.417Z,2.00
2023-04-16T16:32:58.401Z,2.00
2023-04-16T16:35:29.268Z,2.20
2023-04-16T16:38:01.985Z,2.40
2023-04-16T16:40:33.421Z,2.60
2023-04-16T16:43:04.532Z,2.10
2023-04-16T16:45:35.427Z,2.30
2023-04-16T16:48:06.693Z,2.30
2023-04-16T16:50:37.707Z,2.20
2023-04-16T16:53:08.604Z,1.90
2023-04-16T16:55:39.664Z,2.00
2023-04-16T16:58:12.144Z,2.00
2023-04-16T17:00:43.445Z,2.10
2023-04-16T17:03:14.651Z,2.00
2023-04-16T17:05:46.055Z,2.00
2023-04-16T17:08:17.094Z,2.20
2023-04-16T17:10:48.133Z,2.80
2023-04-16T17:13:20.583Z,2.00
2023-04-16T17:15:51.543Z,2.00
2023-04-16T17:18:22.649Z,1.70
2023-04-16T17:20:53.854Z,1.90
2023-04-16T17:23:24.942Z,2.10
2023-04-16T17:25:55.977Z,2.40
2023-04-16T17:28:27.282Z,2.00
2023-04-16T17:30:58.696Z,1.80
2023-04-16T17:33:29.782Z,2.00
2023-04-16T17:36:00.582Z,1.90
2023-04-16T17:38:31.736Z,1.70
2023-04-16T17:41:02.810Z,1.70
2023-04-16T17:43:33.759Z,2.10
2023-04-16T17:46:04.776Z,1.70
2023-04-16T17:48:35.986Z,2.00
2023-04-16T17:51:13.606Z,2.10
2023-04-16T17:53:45.304Z,1.90
2023-04-16T17:56:17.106Z,1.80
2023-04-16T17:58:48.277Z,1.80
2023-04-16T18:01:19.685Z,2.10
2023-04-16T18:03:51.187Z,2.00
2023-04-16T18:06:22.422Z,2.50
2023-04-16T18:08:53.684Z,1.80
2023-04-16T18:11:24.967Z,2.20
2023-04-16T18:13:56.122Z,2.00
2023-04-16T18:16:27.204Z,1.90
2023-04-16T18:18:58.314Z,1.60
2023-04-16T18:21:30.557Z,2.30
2023-04-16T18:24:03.603Z,1.80
2023-04-16T18:26:36.097Z,1.70
2023-04-16T18:29:08.778Z,1.80
2023-04-16T18:31:40.595Z,1.80
2023-04-16T18:34:12.487Z,1.90
2023-04-16T18:36:43.838Z,2.10
2023-04-16T18:39:14.907Z,1.80
2023-04-16T18:41:47.950Z,1.80
2023-04-16T18:44:19.962Z,1.80
2023-04-16T18:46:51.275Z,1.90
2023-04-16T18:49:22.311Z,1.90
2023-04-16T18:51:55.839Z,2.00
2023-04-16T18:54:27.686Z,2.10
2023-04-16T18:57:00.736Z,2.50
2023-04-16T18:59:32.047Z,2.40
2023-04-16T19:02:03.948Z,2.30
2023-04-16T19:04:35.606Z,2.30
2023-04-16T19:07:06.664Z,2.00
2023-04-16T19:09:37.848Z,2.20
2023-04-16T19:12:09.572Z,2.70
2023-04-16T19:14:40.750Z,2.40
2023-04-16T19:17:12.433Z,2.30
2023-04-16T19:19:43.371Z,2.00
2023-04-16T19:22:14.498Z,2.30
2023-04-16T19:24:45.854Z,2.30
2023-04-16T19:27:17.012Z,2.00
2023-04-16T19:29:48.008Z,2.10
2023-04-16T19:32:18.946Z,2.00
2023-04-16T19:34:49.836Z,2.20
2023-04-16T19:37:20.788Z,2.40
2023-04-16T19:39:51.934Z,2.30
2023-04-16T19:42:23.029Z,2.20
2023-04-16T19:44:54.293Z,1.50
2023-04-16T19:47:25.305Z,2.20
2023-04-16T19:49:56.655Z,2.00
2023-04-16T19:52:27.813Z,1.90
2023-04-16T19:54:58.832Z,2.40
2023-04-16T19:57:30.086Z,1.70
2023-04-16T20:00:01.566Z,2.00
2023-04-16T20:02:33.035Z,1.90
2023-04-16T20:05:08.198Z,1.70
2023-04-16T20:07:39.431Z,2.00
2023-04-16T20:10:11.892Z,2.10
2023-04-16T20:12:42.792Z,1.60
2023-04-16T20:15:14.771Z,1.90
2023-04-16T20:17:45.956Z,2.10
2023-04-16T20:20:17.567Z,2.30
2023-04-16T20:22:48.576Z,1.90
2023-04-16T20:25:20.699Z,1.80
2023-04-16T20:27:51.665Z,2.00
2023-04-16T20:30:28.832Z,2.10
2023-04-16T20:32:59.673Z,1.90
2023-04-16T20:35:30.609Z,1.70
2023-04-16T20:38:01.635Z,1.90
2023-04-16T20:40:32.453Z,2.30
2023-04-16T20:43:03.543Z,2.00
2023-04-16T20:45:38.402Z,2.00
2023-04-16T20:48:09.567Z,1.90
2023-04-16T20:50:40.798Z,1.70
2023-04-16T20:53:13.150Z,2.20
2023-04-16T20:55:45.696Z,2.10
2023-04-16T20:58:16.541Z,2.10
2023-04-16T21:00:52.202Z,1.60
2023-04-16T21:03:23.070Z,2.10
2023-04-16T21:05:55.495Z,1.80
2023-04-16T21:08:26.717Z,1.90
2023-04-16T21:10:57.605Z,1.70
2023-04-16T21:13:28.373Z,2.40
2023-04-16T21:15:59.312Z,2.00
2023-04-16T21:18:30.608Z,2.20
2023-04-16T21:21:01.773Z,1.60
2023-04-16T21:23:32.513Z,2.10
2023-04-16T21:26:03.451Z,1.80
2023-04-16T21:28:34.107Z,1.90
2023-04-16T21:31:05.195Z,1.90
2023-04-16T21:33:36.102Z,1.70
2023-04-16T21:36:07.657Z,1.80
2023-04-16T21:38:38.472Z,1.60
2023-04-16T21:41:09.520Z,1.70
2023-04-16T21:43:40.860Z,1.80
2023-04-16T21:46:11.985Z,1.70
2023-04-16T21:48:42.813Z,1.70
2023-04-16T21:51:14.174Z,2.20
2023-04-16T21:53:45.033Z,1.80
2023-04-16T21:56:15.795Z,2.00
2023-04-16T21:58:46.523Z,1.80
2023-04-16T22:01:17.593Z,2.10
2023-04-16T22:03:50.780Z,1.90
2023-04-16T22:06:22.378Z,1.90
2023-04-16T22:08:53.609Z,2.10
2023-04-16T22:11:24.526Z,2.00
2023-04-16T22:13:58.044Z,2.10
2023-04-16T22:16:29.112Z,1.90
2023-04-16T22:19:00.275Z,2.30
2023-04-16T22:21:31.409Z,1.80
2023-04-16T22:24:02.730Z,1.80
2023-04-16T22:26:33.541Z,2.10
2023-04-16T22:29:04.314Z,1.60
2023-04-16T22:31:35.244Z,1.80
2023-04-16T22:34:06.067Z,1.70
2023-04-16T22:36:36.935Z,1.60
2023-04-16T22:39:08.765Z,1.80
2023-04-16T22:41:39.607Z,1.90
2023-04-16T22:44:11.024Z,2.00
2023-04-16T22:46:42.628Z,2.10
2023-04-16T22:49:13.515Z,2.00
2023-04-16T22:51:44.927Z,2.30
2023-04-16T22:54:16.557Z,2.20
2023-04-16T22:56:48.694Z,1.80
2023-04-16T22:59:19.611Z,2.00
2023-04-16T23:01:50.404Z,1.90
2023-04-16T23:04:21.423Z,1.80
2023-04-16T23:06:52.569Z,1.80
2023-04-16T23:09:23.562Z,1.70
2023-04-16T23:11:54.226Z,2.30
2023-04-16T23:14:26.393Z,2.10
2023-04-16T23:16:57.519Z,1.80
2023-04-16T23:19:28.266Z,1.70
2023-04-16T23:21:59.190Z,2.00
2023-04-16T23:24:29.911Z,2.10
2023-04-16T23:27:01.577Z,2.00
2023-04-16T23:29:33.048Z,1.80
2023-04-16T23:32:04.398Z,2.10
2023-04-16T23:34:35.250Z,1.80
2023-04-16T23:37:06.123Z,1.60
2023-04-16T23:39:37.381Z,1.80
2023-04-16T23:42:08.323Z,2.00
2023-04-16T23:44:39.161Z,2.20
2023-04-16T23:47:09.854Z,2.20
2023-04-16T23:49:40.592Z,2.60
2023-04-16T23:52:11.842Z,1.90
2023-04-16T23:54:42.994Z,2.10
2023-04-16T23:57:13.983Z,2.10
2023-04-16T23:59:44.567Z,1.90
